Time;durP1;ratioP1;P1;durP2;ratioP2;P2;SDS_P1;SDS_P2;PMS_P1;PMS_P2;Temp;Humidity;BMP_temperature;BMP_pressure;BME280_temperature;BME280_humidity;BME280_pressure;Samples;Min_cycle;Max_cycle;Signal;HPM_P1;HPM_P2
2020/12/23 00:00:47;;;;;;;2.03;1.08;;;23.70;42.70;;;;;;5006129;28;20057;-45
2020/12/23 00:03:12;;;;;;;2.53;1.10;;;23.70;42.80;;;;;;5005831;28;20100;-45
2020/12/23 00:05:38;;;;;;;1.70;1.02;;;23.60;42.70;;;;;;5007139;28;20416;-45
2020/12/23 00:08:04;;;;;;;1.63;1.00;;;23.60;42.70;;;;;;5008339;28;20078;-45
2020/12/23 00:10:29;;;;;;;2.63;1.25;;;23.60;42.70;;;;;;4989653;28;20027;-48
2020/12/23 00:12:55;;;;;;;2.13;1.00;;;23.70;42.80;;;;;;5006256;28;20121;-48
2020/12/23 00:15:21;;;;;;;1.95;1.00;;;23.60;42.70;;;;;;5006630;28;20034;-46
2020/12/23 00:17:47;;;;;;;1.67;1.10;;;23.60;42.70;;;;;;5006068;28;20053;-49
2020/12/23 00:20:12;;;;;;;2.05;1.10;;;23.60;42.70;;;;;;5006543;28;20036;-47
2020/12/23 00:22:38;;;;;;;1.70;1.10;;;23.60;42.70;;;;;;5007222;28;20402;-45
2020/12/23 00:25:05;;;;;;;2.03;1.40;;;23.60;42.80;;;;;;5010322;28;20109;-47
2020/12/23 00:27:30;;;;;;;1.30;0.82;;;23.60;42.80;;;;;;5008457;28;20036;-45
2020/12/23 00:29:56;;;;;;;2.40;1.17;;;23.60;42.80;;;;;;5005274;28;21080;-48
2020/12/23 00:32:27;;;;;;;1.08;0.60;;;23.60;42.80;;;;;;5005559;28;20080;-46
2020/12/23 00:34:52;;;;;;;3.30;1.38;;;23.60;42.80;;;;;;5003013;28;20091;-47
2020/12/23 00:37:18;;;;;;;1.73;1.00;;;23.60;42.80;;;;;;5007471;28;20105;-46
2020/12/23 00:39:44;;;;;;;2.03;1.15;;;23.60;42.80;;;;;;5009196;28;20038;-48
2020/12/23 00:42:10;;;;;;;1.45;0.82;;;23.50;42.80;;;;;;5005646;28;20437;-47
2020/12/23 00:44:36;;;;;;;2.95;1.13;;;23.60;42.80;;;;;;5004194;28;20026;-49
2020/12/23 00:47:02;;;;;;;2.38;1.10;;;23.50;42.80;;;;;;5005857;28;20030;-45
2020/12/23 00:49:27;;;;;;;1.60;1.13;;;23.50;42.80;;;;;;4991810;28;20076;-45
2020/12/23 00:51:53;;;;;;;2.42;1.27;;;23.50;42.80;;;;;;4988710;28;20388;-44
2020/12/23 00:54:19;;;;;;;1.85;1.00;;;23.50;42.80;;;;;;5007560;28;20425;-46
2020/12/23 00:56:46;;;;;;;1.45;0.88;;;23.50;42.80;;;;;;5013639;28;20354;-51
2020/12/23 00:59:11;;;;;;;2.13;0.95;;;23.50;42.80;;;;;;5005377;28;20033;-43
2020/12/23 01:01:37;;;;;;;2.67;1.02;;;23.50;42.90;;;;;;5007361;28;20026;-46
2020/12/23 01:04:03;;;;;;;2.10;1.20;;;23.50;42.90;;;;;;5005938;28;20026;-47
2020/12/23 01:06:29;;;;;;;2.75;1.20;;;23.50;42.90;;;;;;5003268;28;20350;-43
2020/12/23 01:08:55;;;;;;;2.30;1.38;;;23.50;42.90;;;;;;5005999;28;20054;-47
2020/12/23 01:11:21;;;;;;;1.50;1.00;;;23.50;42.90;;;;;;5010622;28;20022;-45
2020/12/23 01:13:47;;;;;;;1.98;1.17;;;23.50;42.90;;;;;;5006218;28;20100;-46
2020/12/23 01:16:19;;;;;;;1.80;1.23;;;23.50;42.90;;;;;;5005484;28;20374;-44
2020/12/23 01:18:44;;;;;;;1.67;1.13;;;23.50;42.90;;;;;;5003942;28;20084;-45
2020/12/23 01:21:10;;;;;;;2.75;1.13;;;23.50;43.00;;;;;;5006240;28;20049;-46
2020/12/23 01:23:36;;;;;;;2.05;1.20;;;23.50;43.00;;;;;;5006095;28;20026;-46
2020/12/23 01:26:02;;;;;;;2.15;1.30;;;23.50;43.00;;;;;;4986289;28;20193;-47
2020/12/23 01:28:28;;;;;;;1.67;1.13;;;23.40;42.90;;;;;;5003894;28;20027;-45
2020/12/23 01:30:53;;;;;;;1.90;1.13;;;23.40;43.00;;;;;;5004766;28;20346;-47
2020/12/23 01:33:19;;;;;;;1.75;1.20;;;23.40;43.00;;;;;;5005486;28;20022;-48
2020/12/23 01:35:45;;;;;;;3.15;1.30;;;23.40;43.00;;;;;;5008383;28;20034;-44
2020/12/23 01:38:11;;;;;;;2.50;1.30;;;23.40;43.00;;;;;;5004138;28;20041;-47
2020/12/23 01:40:37;;;;;;;1.10;1.00;;;23.40;43.00;;;;;;5008385;28;20370;-46
2020/12/23 01:43:07;;;;;;;2.08;1.02;;;23.40;43.00;;;;;;5004095;28;20030;-47
2020/12/23 01:45:32;;;;;;;2.20;1.38;;;23.40;43.00;;;;;;5003609;28;20038;-46
2020/12/23 01:47:58;;;;;;;1.83;1.30;;;23.40;43.00;;;;;;5004574;28;20035;-46
2020/12/23 01:50:24;;;;;;;1.65;1.13;;;23.40;43.00;;;;;;5002072;28;20145;-47
2020/12/23 01:52:53;;;;;;;1.70;1.20;;;23.40;43.00;;;;;;5004379;28;20083;-48
2020/12/23 01:55:20;;;;;;;2.05;1.40;;;23.40;43.00;;;;;;5005248;28;20037;-46
2020/12/23 01:57:46;;;;;;;1.90;1.13;;;23.40;43.00;;;;;;5007281;28;20034;-48
2020/12/23 02:00:11;;;;;;;1.70;1.20;;;23.30;42.90;;;;;;5003180;28;20033;-47
2020/12/23 02:02:43;;;;;;;1.67;1.15;;;23.40;43.00;;;;;;5007828;28;20032;-46
2020/12/23 02:05:10;;;;;;;1.98;1.58;;;23.30;42.90;;;;;;5005415;28;20072;-46
2020/12/23 02:07:36;;;;;;;2.20;1.40;;;23.30;42.90;;;;;;4986988;28;20454;-45
2020/12/23 02:10:05;;;;;;;1.45;1.23;;;23.30;42.90;;;;;;5007998;28;20021;-47
2020/12/23 02:12:31;;;;;;;2.75;1.60;;;23.30;43.00;;;;;;5003472;28;20034;-45
2020/12/23 02:15:09;;;;;;;2.15;1.48;;;23.30;43.00;;;;;;5021869;28;20420;-45
2020/12/23 02:17:35;;;;;;;19.13;1.45;;;23.30;43.00;;;;;;5022728;28;20045;-46
2020/12/23 02:20:01;;;;;;;1.33;1.10;;;23.30;43.00;;;;;;5026003;28;20075;-49
2020/12/23 02:22:28;;;;;;;1.77;1.40;;;23.30;43.10;;;;;;5027357;28;20030;-47
2020/12/23 02:24:54;;;;;;;2.33;1.20;;;23.30;43.10;;;;;;5022327;28;20064;-45
2020/12/23 02:27:21;;;;;;;1.80;1.10;;;23.30;43.10;;;;;;5023189;28;20026;-44
2020/12/23 02:29:54;;;;;;;2.08;1.35;;;23.30;43.10;;;;;;5025709;28;20090;-44
2020/12/23 02:32:20;;;;;;;1.10;1.00;;;23.30;43.10;;;;;;5025122;28;20164;-45
2020/12/23 02:34:47;;;;;;;2.25;1.10;;;23.30;43.10;;;;;;5021769;28;20121;-49
2020/12/23 02:37:13;;;;;;;1.48;1.25;;;23.20;43.10;;;;;;5023753;28;20468;-46
2020/12/23 02:39:41;;;;;;;1.65;1.30;;;23.20;43.10;;;;;;5024114;28;20073;-48
2020/12/23 02:42:07;;;;;;;2.13;1.40;;;23.30;43.10;;;;;;5007558;28;20040;-47
2020/12/23 02:44:33;;;;;;;3.63;1.70;;;23.20;43.10;;;;;;5026590;28;20329;-45
2020/12/23 02:47:02;;;;;;;1.63;1.27;;;23.20;43.10;;;;;;5029536;28;20029;-44
2020/12/23 02:49:28;;;;;;;1.63;1.38;;;23.20;43.10;;;;;;5025324;28;20032;-45
2020/12/23 02:51:54;;;;;;;2.70;1.25;;;23.20;43.10;;;;;;5025698;28;20429;-47
2020/12/23 02:54:20;;;;;;;3.90;1.48;;;23.20;43.10;;;;;;5025253;28;20034;-43
2020/12/23 02:56:46;;;;;;;2.00;1.58;;;23.20;43.10;;;;;;5023680;28;20342;-50
2020/12/23 02:59:13;;;;;;;2.53;1.65;;;23.20;43.10;;;;;;5020659;28;20133;-47
2020/12/23 03:01:39;;;;;;;1.83;1.40;;;23.20;43.10;;;;;;5024046;28;20430;-44
2020/12/23 03:04:06;;;;;;;1.83;1.30;;;23.20;43.10;;;;;;5021640;28;20456;-44
2020/12/23 03:06:33;;;;;;;1.85;1.50;;;23.20;43.10;;;;;;5022956;28;20041;-45
2020/12/23 03:08:59;;;;;;;2.28;1.63;;;23.20;43.20;;;;;;5024004;28;20041;-49
2020/12/23 03:11:25;;;;;;;1.90;1.40;;;23.20;43.20;;;;;;5022431;28;20096;-47
2020/12/23 03:13:51;;;;;;;3.55;1.20;;;23.20;43.20;;;;;;5014783;28;20046;-49
2020/12/23 03:16:16;;;;;;;3.35;1.40;;;23.20;43.20;;;;;;5002815;28;20034;-46
2020/12/23 03:18:42;;;;;;;2.20;1.30;;;23.20;43.20;;;;;;5003921;28;20103;-44
2020/12/23 03:21:09;;;;;;;1.60;1.20;;;23.20;43.20;;;;;;5001956;28;20033;-46
2020/12/23 03:23:36;;;;;;;2.05;1.30;;;23.10;43.20;;;;;;5003745;28;20109;-44
2020/12/23 03:26:03;;;;;;;2.95;1.50;;;23.10;43.20;;;;;;5005303;28;20065;-46
2020/12/23 03:28:29;;;;;;;2.53;1.50;;;23.10;43.30;;;;;;4983404;28;20048;-45
2020/12/23 03:30:57;;;;;;;2.63;1.58;;;23.10;43.30;;;;;;5002336;28;20078;-45
2020/12/23 03:33:23;;;;;;;2.35;1.60;;;23.10;43.30;;;;;;5003393;28;20040;-47
2020/12/23 03:35:49;;;;;;;2.85;1.67;;;23.10;43.30;;;;;;5002509;28;20034;-44
2020/12/23 03:38:15;;;;;;;2.38;1.60;;;23.10;43.20;;;;;;5006535;28;20034;-45
2020/12/23 03:40:40;;;;;;;3.72;1.67;;;23.10;43.20;;;;;;5004391;28;20029;-49
2020/12/23 03:43:06;;;;;;;3.05;1.85;;;23.10;43.20;;;;;;5006414;28;20034;-45
2020/12/23 03:45:32;;;;;;;3.42;1.83;;;23.10;43.30;;;;;;5002073;28;20030;-48
2020/12/23 03:47:58;;;;;;;2.85;1.75;;;23.10;43.30;;;;;;5004068;28;20023;-45
2020/12/23 03:50:24;;;;;;;2.15;1.60;;;23.10;43.30;;;;;;5002604;28;20124;-47
2020/12/23 03:52:49;;;;;;;2.83;1.52;;;23.10;43.30;;;;;;5005360;28;20454;-46
2020/12/23 03:55:15;;;;;;;1.92;1.60;;;23.00;43.20;;;;;;5002070;28;20034;-46
2020/12/23 03:57:41;;;;;;;1.73;1.30;;;23.10;43.30;;;;;;5004721;28;20033;-46
2020/12/23 04:00:09;;;;;;;2.55;1.60;;;23.00;43.30;;;;;;5003618;28;20038;-44
2020/12/23 04:02:39;;;;;;;2.13;1.60;;;23.10;43.40;;;;;;5004071;28;20689;-46
2020/12/23 04:05:05;;;;;;;3.53;1.98;;;23.10;43.30;;;;;;5003613;28;20034;-44
2020/12/23 04:07:31;;;;;;;2.65;1.92;;;23.00;43.30;;;;;;5005738;28;20091;-44
2020/12/23 04:09:57;;;;;;;3.63;1.92;;;23.00;43.30;;;;;;5007066;28;20177;-48
2020/12/23 04:12:23;;;;;;;2.55;1.70;;;23.00;43.30;;;;;;5005880;28;20108;-44
2020/12/23 04:14:49;;;;;;;3.17;2.00;;;23.00;43.30;;;;;;5006845;28;20050;-44
2020/12/23 04:17:15;;;;;;;2.25;1.88;;;23.00;43.40;;;;;;5006781;28;20056;-46
2020/12/23 04:19:41;;;;;;;2.22;1.67;;;23.00;43.40;;;;;;5004877;28;20046;-45
2020/12/23 04:22:07;;;;;;;2.55;1.88;;;23.00;43.40;;;;;;5005893;28;20041;-49
2020/12/23 04:24:32;;;;;;;3.15;2.10;;;23.00;43.40;;;;;;5003948;28;20022;-47
2020/12/23 04:26:58;;;;;;;3.63;1.95;;;23.00;43.40;;;;;;5004832;28;20501;-49
2020/12/23 04:29:24;;;;;;;2.55;2.03;;;23.00;43.40;;;;;;5006852;28;20124;-44
2020/12/23 04:31:50;;;;;;;2.58;1.85;;;23.00;44.00;;;;;;5009014;28;20025;-43
2020/12/23 04:34:16;;;;;;;2.75;2.00;;;23.00;43.40;;;;;;5006466;28;20037;-46
2020/12/23 04:36:42;;;;;;;2.75;1.55;;;23.00;43.40;;;;;;5005696;28;20458;-44
2020/12/23 04:39:08;;;;;;;2.50;1.70;;;23.00;43.40;;;;;;5008660;28;20058;-48
2020/12/23 04:41:35;;;;;;;2.83;1.80;;;23.00;43.50;;;;;;5005250;28;20038;-46
2020/12/23 04:44:04;;;;;;;4.80;2.20;;;23.00;43.50;;;;;;5004802;28;20025;-43
2020/12/23 04:46:33;;;;;;;3.05;2.10;;;23.00;43.50;;;;;;5008969;28;20041;-44
2020/12/23 04:49:00;;;;;;;2.75;2.00;;;23.00;43.50;;;;;;5004574;28;20044;-46
2020/12/23 04:51:33;;;;;;;2.22;1.88;;;22.90;43.40;;;;;;5005117;28;20357;-45
2020/12/23 04:54:02;;;;;;;3.17;2.03;;;22.90;43.40;;;;;;5002607;28;20041;-45
2020/12/23 04:56:31;;;;;;;3.22;2.35;;;22.90;43.50;;;;;;5004483;28;20112;-44
2020/12/23 04:58:58;;;;;;;3.55;2.40;;;22.90;43.50;;;;;;5006503;28;20463;-44
2020/12/23 05:01:24;;;;;;;2.72;2.08;;;22.90;43.40;;;;;;5004552;28;20085;-45
2020/12/23 05:03:53;;;;;;;2.15;1.85;;;22.90;43.40;;;;;;5006369;28;20035;-45
2020/12/23 05:06:21;;;;;;;2.63;1.92;;;22.90;43.50;;;;;;5003157;28;20026;-49
2020/12/23 05:08:47;;;;;;;2.60;2.10;;;22.90;43.50;;;;;;5010931;28;20030;-44
2020/12/23 05:11:13;;;;;;;3.42;2.13;;;22.90;43.50;;;;;;5007445;28;20133;-46
2020/12/23 05:13:41;;;;;;;2.60;1.90;;;22.90;43.50;;;;;;5005258;28;20041;-44
2020/12/23 05:16:21;;;;;;;2.85;2.03;;;22.90;43.50;;;;;;5006170;28;20036;-47
2020/12/23 05:18:47;;;;;;;2.33;1.88;;;22.90;43.50;;;;;;5004596;28;20521;-45
2020/12/23 05:21:16;;;;;;;2.83;2.05;;;22.90;43.50;;;;;;5001974;28;20129;-43
2020/12/23 05:23:46;;;;;;;3.10;1.98;;;22.90;43.50;;;;;;5007172;28;20439;-47
2020/12/23 05:26:13;;;;;;;3.45;2.17;;;22.90;43.50;;;;;;5006900;28;20052;-45
2020/12/23 05:28:40;;;;;;;2.97;2.30;;;22.90;43.50;;;;;;5001515;28;20034;-44
2020/12/23 05:31:09;;;;;;;3.50;2.00;;;22.90;43.50;;;;;;5005881;28;20377;-43
2020/12/23 05:33:36;;;;;;;3.42;2.15;;;22.80;43.50;;;;;;5002105;28;20033;-44
2020/12/23 05:36:04;;;;;;;3.03;2.25;;;22.80;43.50;;;;;;5003421;28;20117;-49
2020/12/23 05:38:31;;;;;;;3.47;2.00;;;22.80;43.50;;;;;;5001836;28;20049;-48
2020/12/23 05:41:08;;;;;;;2.88;1.90;;;22.80;43.60;;;;;;5004907;28;20357;-46
2020/12/23 05:43:34;;;;;;;2.20;1.90;;;22.80;43.50;;;;;;5006561;28;20030;-44
2020/12/23 05:46:03;;;;;;;2.38;1.80;;;22.80;43.60;;;;;;5005788;28;20036;-44
2020/12/23 05:48:34;;;;;;;4.80;1.75;;;22.80;43.60;;;;;;5005780;28;20053;-45
2020/12/23 05:51:01;;;;;;;2.63;1.73;;;22.80;43.60;;;;;;5003832;28;20495;-45
2020/12/23 05:53:31;;;;;;;2.35;1.80;;;22.80;43.60;;;;;;5005216;28;20029;-44
2020/12/23 05:55:57;;;;;;;2.95;2.20;;;22.80;43.60;;;;;;5003057;28;20369;-47
2020/12/23 05:58:30;;;;;;;2.25;1.77;;;22.80;43.60;;;;;;5007822;28;20391;-46
2020/12/23 06:00:57;;;;;;;2.60;1.95;;;22.80;43.60;;;;;;5004193;28;20085;-46
2020/12/23 06:03:43;;;;;;;2.50;2.00;;;22.80;43.60;;;;;;5006086;28;20026;-44
2020/12/23 06:06:12;;;;;;;2.35;1.83;;;22.80;44.20;;;;;;5004571;28;20042;-46
2020/12/23 06:08:39;;;;;;;2.67;1.70;;;22.80;43.60;;;;;;5003185;28;20030;-47
2020/12/23 06:11:34;;;;;;;2.35;1.65;;;22.80;43.60;;;;;;5003252;28;20042;-45
2020/12/23 06:14:03;;;;;;;2.63;1.80;;;22.80;43.60;;;;;;5004764;28;20050;-44
2020/12/23 06:16:46;;;;;;;2.90;1.90;;;22.80;43.70;;;;;;5003403;28;20029;-45
2020/12/23 06:19:23;;;;;;;2.58;1.83;;;22.80;43.70;;;;;;5008423;28;20071;-44
2020/12/23 06:21:50;;;;;;;1.90;1.58;;;22.70;43.60;;;;;;5003486;28;20034;-45
2020/12/23 06:24:16;;;;;;;2.92;1.60;;;22.70;43.70;;;;;;5000271;28;20038;-50
2020/12/23 06:26:48;;;;;;;2.15;1.50;;;22.80;43.70;;;;;;5002890;28;20030;-44
2020/12/23 06:29:20;;;;;;;2.67;2.08;;;22.70;43.70;;;;;;5003216;28;20433;-46
2020/12/23 06:31:51;;;;;;;2.05;1.70;;;22.80;43.70;;;;;;5006184;28;20034;-48
2020/12/23 06:34:31;;;;;;;2.22;1.58;;;22.70;43.70;;;;;;5004839;28;20030;-45
2020/12/23 06:36:58;;;;;;;2.15;1.80;;;22.70;43.70;;;;;;5002994;28;20058;-46
2020/12/23 06:39:31;;;;;;;2.53;1.52;;;22.70;43.70;;;;;;5003009;28;20129;-47
2020/12/23 06:42:00;;;;;;;1.90;1.50;;;22.70;43.70;;;;;;5003175;28;20033;-45
2020/12/23 06:44:46;;;;;;;2.40;1.60;;;22.70;43.70;;;;;;5006873;28;20026;-45
2020/12/23 06:47:44;;;;;;;1.63;1.42;;;22.70;43.70;;;;;;5002213;28;20032;-46
2020/12/23 06:50:15;;;;;;;1.40;1.20;;;22.70;43.70;;;;;;4985888;28;20076;-44
2020/12/23 06:52:43;;;;;;;1.95;1.52;;;22.70;43.70;;;;;;5003520;28;20125;-44
2020/12/23 06:55:09;;;;;;;1.83;1.63;;;22.70;43.70;;;;;;5004884;28;20029;-44
2020/12/23 06:57:44;;;;;;;1.88;1.60;;;22.70;43.70;;;;;;5004487;28;20041;-45
2020/12/23 07:00:13;;;;;;;1.85;1.55;;;22.70;44.30;;;;;;5000463;28;20050;-43
2020/12/23 07:02:39;;;;;;;2.30;1.60;;;22.70;43.70;;;;;;5002077;28;20044;-45
2020/12/23 07:05:04;;;;;;;1.77;1.52;;;22.70;43.80;;;;;;5004459;28;20109;-46
2020/12/23 07:07:38;;;;;;;4.72;1.80;;;22.70;44.40;;;;;;5008642;28;20026;-49
2020/12/23 07:10:09;;;;;;;3.75;1.95;;;22.70;43.80;;;;;;5003019;28;20026;-48
2020/12/23 07:12:38;;;;;;;2.70;1.90;;;22.70;43.80;;;;;;5002585;28;20030;-44
2020/12/23 07:15:17;;;;;;;4.43;2.25;;;22.70;43.80;;;;;;5002745;28;20089;-48
2020/12/23 07:17:44;;;;;;;2.15;1.63;;;22.70;43.80;;;;;;5001721;28;20041;-51
2020/12/23 07:20:13;;;;;;;3.17;1.90;;;22.60;43.80;;;;;;5004679;28;20040;-46
2020/12/23 07:22:40;;;;;;;3.88;2.15;;;22.70;43.80;;;;;;5004169;28;20041;-50
2020/12/23 07:25:06;;;;;;;3.92;2.13;;;22.70;44.00;;;;;;5004161;28;20430;-47
2020/12/23 07:27:33;;;;;;;3.15;1.80;;;22.60;43.80;;;;;;5002098;28;20026;-49
2020/12/23 07:30:07;;;;;;;3.05;1.77;;;22.60;43.80;;;;;;5002198;28;20037;-47
2020/12/23 07:32:33;;;;;;;3.47;1.95;;;22.60;43.80;;;;;;5001451;28;20049;-47
2020/12/23 07:34:59;;;;;;;4.18;2.20;;;22.60;43.90;;;;;;5004237;28;20030;-49
2020/12/23 07:37:37;;;;;;;4.05;2.25;;;22.60;43.90;;;;;;5005354;28;20033;-47
2020/12/23 07:40:12;;;;;;;3.67;2.05;;;22.60;43.90;;;;;;5003719;28;20121;-47
2020/12/23 07:42:38;;;;;;;4.45;2.03;;;22.60;43.90;;;;;;5003726;28;20125;-49
2020/12/23 07:45:03;;;;;;;3.97;2.28;;;22.60;44.00;;;;;;5006082;28;20121;-44
2020/12/23 07:47:29;;;;;;;3.90;2.10;;;22.60;44.00;;;;;;5013141;28;20116;-45
2020/12/23 07:49:59;;;;;;;4.65;2.20;;;22.60;44.00;;;;;;5010135;28;20022;-47
2020/12/23 07:52:25;;;;;;;4.93;2.20;;;22.60;44.10;;;;;;5007652;28;20037;-43
2020/12/23 07:54:50;;;;;;;4.18;2.00;;;22.60;44.10;;;;;;5004306;28;20036;-47
2020/12/23 07:57:30;;;;;;;5.03;2.38;;;22.60;44.10;;;;;;5010924;28;20116;-47
2020/12/23 08:00:09;;;;;;;5.47;2.00;;;22.60;44.20;;;;;;5010182;28;20121;-45
2020/12/23 08:02:40;;;;;;;3.38;2.17;;;22.60;44.30;;;;;;5011738;28;20038;-50
2020/12/23 08:05:07;;;;;;;4.28;2.13;;;22.60;44.40;;;;;;5011052;28;20034;-46
2020/12/23 08:07:40;;;;;;;4.28;2.05;;;22.60;44.50;;;;;;5014361;28;20030;-44
2020/12/23 08:10:18;;;;;;;4.07;2.10;;;22.60;44.60;;;;;;5013941;28;20388;-47
2020/12/23 08:12:55;;;;;;;4.35;2.17;;;22.60;44.70;;;;;;4991714;28;20089;-44
2020/12/23 08:15:22;;;;;;;6.25;2.22;;;22.60;44.70;;;;;;5027213;28;20121;-44
2020/12/23 08:17:57;;;;;;;4.80;2.15;;;22.60;44.80;;;;;;5026027;28;20022;-47
2020/12/23 08:20:22;;;;;;;3.60;2.05;;;22.60;44.80;;;;;;5026557;28;20026;-52
2020/12/23 08:22:48;;;;;;;4.68;2.25;;;22.60;44.80;;;;;;5022510;28;20021;-48
2020/12/23 08:25:19;;;;;;;5.05;2.33;;;22.60;44.90;;;;;;5029406;28;20428;-47
2020/12/23 08:27:47;;;;;;;5.70;2.10;;;22.60;44.80;;;;;;5028109;28;20476;-47
2020/12/23 08:30:20;;;;;;;4.40;2.10;;;22.70;44.90;;;;;;5010223;28;20518;-47
2020/12/23 08:33:05;;;;;;;5.78;2.35;;;22.70;44.90;;;;;;5027556;28;20056;-46
2020/12/23 08:35:43;;;;;;;4.32;2.30;;;22.70;44.90;;;;;;5024918;28;20440;-46
2020/12/23 08:38:17;;;;;;;6.78;2.13;;;22.70;44.90;;;;;;5031144;28;20045;-46
2020/12/23 08:40:51;;;;;;;3.15;1.80;;;22.70;44.90;;;;;;5031614;28;20120;-46
2020/12/23 08:43:26;;;;;;;3.78;1.80;;;22.70;44.90;;;;;;5004462;28;20047;-44
2020/12/23 08:45:59;;;;;;;5.13;2.00;;;22.80;45.00;;;;;;5030386;28;20360;-44
2020/12/23 08:48:30;;;;;;;2.88;2.13;;;22.80;45.00;;;;;;5030552;28;20037;-45
2020/12/23 08:51:05;;;;;;;4.20;1.92;;;22.80;45.00;;;;;;5032340;28;20048;-45
2020/12/23 08:53:35;;;;;;;5.20;1.90;;;22.80;45.00;;;;;;5030371;28;20021;-44
2020/12/23 08:56:21;;;;;;;3.58;1.83;;;22.80;44.90;;;;;;5031676;28;20425;-44
2020/12/23 08:58:51;;;;;;;2.75;1.70;;;22.80;44.90;;;;;;5032003;28;20091;-43
2020/12/23 09:01:24;;;;;;;2.50;1.50;;;22.80;44.90;;;;;;5024645;28;20034;-44
2020/12/23 09:04:07;;;;;;;3.85;1.80;;;22.80;44.90;;;;;;5024667;28;20041;-44
2020/12/23 09:06:41;;;;;;;4.55;1.65;;;22.90;45.00;;;;;;5026167;28;20473;-51
2020/12/23 09:09:17;;;;;;;4.07;1.70;;;22.80;44.90;;;;;;5024201;28;20044;-48
2020/12/23 09:11:47;;;;;;;3.75;1.52;;;22.90;45.10;;;;;;5024077;28;20033;-51
2020/12/23 09:14:26;;;;;;;2.67;1.50;;;22.90;45.90;;;;;;5014737;28;20049;-50
2020/12/23 09:17:06;;;;;;;5.43;1.88;;;22.90;45.40;;;;;;5003067;28;20442;-51
2020/12/23 09:20:02;;;;;;;2.95;1.50;;;22.90;45.30;;;;;;5006265;28;20042;-47
2020/12/23 09:22:35;;;;;;;3.38;1.40;;;23.00;45.20;;;;;;5005526;28;20050;-48
2020/12/23 09:25:29;;;;;;;3.80;1.40;;;23.00;45.10;;;;;;5003535;28;20465;-50
2020/12/23 09:28:04;;;;;;;3.22;1.40;;;23.10;45.00;;;;;;5004771;28;20424;-51
2020/12/23 09:30:44;;;;;;;3.80;1.48;;;23.10;44.90;;;;;;5005417;28;20093;-46
2020/12/23 09:33:14;;;;;;;2.53;1.48;;;23.10;44.70;;;;;;5007701;28;20025;-51
2020/12/23 09:35:41;;;;;;;1.95;1.05;;;23.20;44.70;;;;;;5012089;28;20464;-49
2020/12/23 09:38:09;;;;;;;3.50;1.13;;;23.20;44.50;;;;;;5012229;28;20042;-48
2020/12/23 09:40:37;;;;;;;2.75;1.00;;;23.20;44.40;;;;;;5012635;28;20440;-49
2020/12/23 09:43:18;;;;;;;2.50;1.27;;;23.30;44.40;;;;;;5009544;28;20434;-54
2020/12/23 09:45:45;;;;;;;1.30;0.95;;;23.40;44.30;;;;;;4995833;28;20022;-48
2020/12/23 09:48:13;;;;;;;2.05;1.15;;;23.40;44.10;;;;;;5004566;28;20422;-52
2020/12/23 09:50:40;;;;;;;2.35;1.08;;;23.40;44.00;;;;;;5001611;28;20030;-51
2020/12/23 09:53:05;;;;;;;2.13;1.17;;;23.50;43.80;;;;;;5005401;28;20109;-49
2020/12/23 09:55:31;;;;;;;2.50;1.42;;;23.60;43.70;;;;;;5001093;28;20114;-48
2020/12/23 09:57:57;;;;;;;2.85;1.25;;;23.70;43.60;;;;;;5005937;28;20022;-46
2020/12/23 10:00:24;;;;;;;2.65;1.20;;;23.80;43.50;;;;;;5004581;28;20049;-49
2020/12/23 10:02:50;;;;;;;3.08;1.15;;;23.90;43.30;;;;;;5000819;28;20121;-51
2020/12/23 10:05:15;;;;;;;2.53;1.40;;;23.90;43.20;;;;;;5003737;28;20085;-47
2020/12/23 10:07:41;;;;;;;3.58;1.55;;;24.00;43.20;;;;;;5005336;28;20034;-48
2020/12/23 10:10:08;;;;;;;3.80;1.10;;;24.10;43.20;;;;;;5004737;28;20113;-46
2020/12/23 10:12:34;;;;;;;1.67;1.10;;;24.20;43.10;;;;;;5005852;28;20040;-45
2020/12/23 10:15:00;;;;;;;2.75;1.30;;;24.30;43.00;;;;;;5010145;28;20121;-49
2020/12/23 10:17:26;;;;;;;2.60;1.40;;;24.30;42.90;;;;;;5005629;28;20037;-52
2020/12/23 10:19:51;;;;;;;2.83;0.95;;;24.40;42.80;;;;;;5007964;28;20046;-45
2020/12/23 10:22:17;;;;;;;2.97;1.17;;;24.50;42.70;;;;;;5012593;28;20037;-49
2020/12/23 10:24:43;;;;;;;1.73;1.10;;;24.60;42.60;;;;;;5011433;28;20425;-51
2020/12/23 10:27:09;;;;;;;2.67;1.17;;;24.60;42.50;;;;;;5014727;28;20516;-51
2020/12/23 10:29:34;;;;;;;2.00;0.95;;;24.70;42.40;;;;;;5002783;28;20030;-49
2020/12/23 10:32:00;;;;;;;2.08;1.10;;;24.80;42.30;;;;;;5008049;28;20030;-46
2020/12/23 10:34:27;;;;;;;1.50;0.70;;;24.80;42.10;;;;;;5003508;28;20025;-51
2020/12/23 10:36:53;;;;;;;1.77;1.17;;;24.90;42.10;;;;;;5004288;28;20361;-50
2020/12/23 10:39:19;;;;;;;1.95;1.10;;;25.00;41.90;;;;;;4999026;28;20049;-46
2020/12/23 10:41:45;;;;;;;2.10;1.00;;;25.00;41.80;;;;;;5011085;28;20165;-50
2020/12/23 10:44:12;;;;;;;2.33;0.93;;;25.00;41.70;;;;;;5004003;28;20022;-48
2020/12/23 10:46:38;;;;;;;1.63;1.02;;;25.10;41.70;;;;;;5011783;28;20022;-48
2020/12/23 10:49:04;;;;;;;1.30;0.73;;;25.10;41.50;;;;;;5013015;28;20465;-48
2020/12/23 10:51:30;;;;;;;0.90;0.63;;;25.20;41.50;;;;;;5004234;28;20027;-50
2020/12/23 10:53:56;;;;;;;1.50;0.77;;;25.20;41.40;;;;;;5005602;28;20438;-46
2020/12/23 10:56:22;;;;;;;1.40;0.80;;;25.30;41.40;;;;;;5006682;28;20048;-47
2020/12/23 10:58:47;;;;;;;1.90;0.90;;;25.30;41.30;;;;;;5010903;28;20044;-47
2020/12/23 11:01:20;;;;;;;1.30;0.77;;;25.30;41.20;;;;;;5006255;28;20030;-45
2020/12/23 11:03:46;;;;;;;1.75;0.90;;;25.40;41.20;;;;;;5007734;28;20037;-45
2020/12/23 11:06:15;;;;;;;0.85;0.60;;;25.40;41.10;;;;;;5008919;28;20038;-46
2020/12/23 11:08:44;;;;;;;1.20;0.70;;;25.40;41.00;;;;;;5011164;28;20033;-46
2020/12/23 11:11:14;;;;;;;1.38;0.63;;;25.40;40.90;;;;;;5005015;28;20513;-46
2020/12/23 11:13:43;;;;;;;1.60;0.77;;;25.40;40.90;;;;;;5009635;28;20045;-47
2020/12/23 11:16:19;;;;;;;1.55;0.82;;;25.50;41.00;;;;;;5006060;28;20036;-45
2020/12/23 11:18:48;;;;;;;1.00;0.80;;;25.50;40.90;;;;;;5023868;28;20080;-47
2020/12/23 11:21:15;;;;;;;1.77;0.73;;;25.50;40.80;;;;;;5027586;28;20025;-48
2020/12/23 11:23:41;;;;;;;1.05;0.60;;;25.50;40.70;;;;;;5025226;28;20025;-47
2020/12/23 11:26:21;;;;;;;0.85;0.60;;;25.50;40.70;;;;;;5028160;28;20034;-47
2020/12/23 11:28:47;;;;;;;3.00;0.55;;;25.50;40.60;;;;;;5024700;28;20033;-46
2020/12/23 11:31:14;;;;;;;0.60;0.57;;;25.50;40.60;;;;;;5029632;28;20025;-45
2020/12/23 11:33:41;;;;;;;1.55;0.50;;;25.50;40.60;;;;;;5025345;28;20360;-45
2020/12/23 11:36:07;;;;;;;2.03;0.70;;;25.50;40.50;;;;;;5025019;28;20559;-48
2020/12/23 11:38:33;;;;;;;1.50;0.60;;;25.50;40.50;;;;;;5027733;28;20038;-47
2020/12/23 11:40:59;;;;;;;2.03;0.63;;;25.50;40.50;;;;;;5029481;28;20345;-47
2020/12/23 11:43:25;;;;;;;0.93;0.50;;;25.60;40.50;;;;;;5030795;28;20420;-46
2020/12/23 11:45:52;;;;;;;0.50;0.50;;;25.60;40.50;;;;;;5036963;28;20109;-49
2020/12/23 11:48:17;;;;;;;1.52;0.70;;;25.60;40.50;;;;;;5030437;28;20022;-44
2020/12/23 11:50:44;;;;;;;0.73;0.55;;;25.60;40.40;;;;;;5029969;28;20397;-45
2020/12/23 11:53:11;;;;;;;4.13;0.60;;;25.60;40.40;;;;;;5030765;28;20400;-46
2020/12/23 11:55:37;;;;;;;4.20;0.50;;;25.60;40.40;;;;;;5031775;28;20140;-46
2020/12/23 11:58:04;;;;;;;0.65;0.50;;;25.60;40.50;;;;;;5031788;28;20048;-44
2020/12/23 12:00:29;;;;;;;2.42;0.75;;;25.60;40.60;;;;;;5028312;28;20040;-44
2020/12/23 12:02:55;;;;;;;1.52;0.75;;;25.60;40.60;;;;;;5030091;28;20340;-46
2020/12/23 12:05:21;;;;;;;2.05;0.95;;;25.60;40.70;;;;;;5030346;28;20029;-47
2020/12/23 12:07:47;;;;;;;1.02;0.70;;;25.60;40.70;;;;;;5032317;28;20034;-45
2020/12/23 12:10:13;;;;;;;1.27;0.90;;;25.60;40.80;;;;;;5028462;28;20030;-49
2020/12/23 12:12:39;;;;;;;1.52;0.88;;;25.60;41.40;;;;;;5030446;28;20021;-47
2020/12/23 12:15:06;;;;;;;1.77;0.68;;;25.60;40.80;;;;;;5029399;28;20519;-47
2020/12/23 12:17:32;;;;;;;1.48;0.80;;;25.60;40.80;;;;;;5012926;28;20048;-45
2020/12/23 12:19:58;;;;;;;1.20;0.60;;;25.50;40.80;;;;;;5027686;28;20042;-48
2020/12/23 12:22:23;;;;;;;0.98;0.65;;;25.50;40.80;;;;;;5024494;28;20106;-47
2020/12/23 12:24:49;;;;;;;1.98;0.73;;;25.50;40.80;;;;;;5024744;28;20105;-44
2020/12/23 12:27:15;;;;;;;1.65;0.75;;;25.60;40.80;;;;;;5023819;28;20049;-51
2020/12/23 12:29:41;;;;;;;4.30;0.70;;;25.50;40.80;;;;;;5025744;28;20097;-50
2020/12/23 12:32:06;;;;;;;0.85;0.60;;;25.60;41.00;;;;;;5025644;28;20458;-47
2020/12/23 12:34:33;;;;;;;1.23;0.60;;;25.60;41.00;;;;;;5027374;28;20042;-47
2020/12/23 12:36:59;;;;;;;2.42;1.00;;;25.70;40.90;;;;;;5031561;28;20025;-49
2020/12/23 12:39:26;;;;;;;0.80;0.60;;;25.80;40.80;;;;;;5028421;28;20038;-47
2020/12/23 12:41:51;;;;;;;2.05;0.90;;;25.80;40.60;;;;;;5026369;28;20044;-47
2020/12/23 12:44:17;;;;;;;1.33;0.80;;;25.90;40.50;;;;;;5028043;28;20025;-48
2020/12/23 12:46:43;;;;;;;2.60;0.75;;;26.00;40.40;;;;;;5030861;28;20483;-47
2020/12/23 12:49:09;;;;;;;1.90;0.88;;;26.10;40.30;;;;;;5027381;28;20094;-49
2020/12/23 12:51:35;;;;;;;0.80;0.63;;;26.10;40.10;;;;;;5024319;28;20095;-46
2020/12/23 12:54:00;;;;;;;0.88;0.60;;;26.10;40.00;;;;;;5023695;28;20393;-49